Time;durP1;ratioP1;P1;durP2;ratioP2;P2;SDS_P1;SDS_P2;PMS_P1;PMS_P2;Temp;Humidity;BMP_temperature;BMP_pressure;BME280_temperature;BME280_humidity;BME280_pressure;Samples;Min_cycle;Max_cycle;Signal;HPM_P1;HPM_P2
2022/09/08 00:02:02;;;;;;;21.05;10.80;;;;;;;22.20;100.00;98598.19;5075070;28;20063;-95
2022/09/08 00:04:28;;;;;;;24.33;11.63;;;;;;;22.24;100.00;98595.16;5075603;28;20102;-96
2022/09/08 00:06:54;;;;;;;25.55;11.15;;;;;;;22.12;100.00;98575.28;5075267;28;20506;-95
2022/09/08 00:09:20;;;;;;;24.55;10.18;;;;;;;22.11;100.00;98572.69;5075248;28;20051;-95
2022/09/08 00:11:48;;;;;;;23.50;11.00;;;;;;;21.99;100.00;98560.09;5075532;28;20066;-95
2022/09/08 00:14:14;;;;;;;21.17;10.75;;;;;;;21.95;100.00;98556.78;5075536;28;20459;-94
2022/09/08 00:16:41;;;;;;;22.33;11.15;;;;;;;22.03;100.00;98575.13;5074827;28;20068;-94
2022/09/08 00:19:07;;;;;;;22.95;10.90;;;;;;;21.97;100.00;98581.00;5075022;28;20048;-95
2022/09/08 00:21:33;;;;;;;35.50;12.90;;;;;;;21.78;100.00;98552.66;5074757;28;20036;-95
2022/09/08 00:23:59;;;;;;;26.08;12.30;;;;;;;21.76;100.00;98551.91;5074757;28;20040;-94
2022/09/08 00:26:25;;;;;;;24.42;11.60;;;;;;;21.79;100.00;98561.63;5074716;28;20093;-95
2022/09/08 00:28:52;;;;;;;23.35;11.82;;;;;;;21.66;100.00;98561.72;5074908;28;20072;-93
2022/09/08 00:31:18;;;;;;;26.67;12.05;;;;;;;21.75;100.00;98593.47;5074842;28;20075;-96
2022/09/08 00:33:44;;;;;;;34.20;12.63;;;;;;;21.57;100.00;98575.94;5074670;28;20171;-95
2022/09/08 00:36:14;;;;;;;27.92;12.15;;;;;;;21.55;100.00;98581.47;5074251;28;20098;-94
2022/09/08 00:38:40;;;;;;;25.15;12.50;;;;;;;21.54;100.00;98585.16;5074511;28;20044;-95
2022/09/08 00:41:11;;;;;;;20.27;11.35;;;;;;;21.50;100.00;98589.06;5074312;28;20420;-95
2022/09/08 00:43:39;;;;;;;23.23;11.05;;;;;;;21.44;100.00;98593.09;5074646;28;20051;-95
2022/09/08 00:46:24;;;;;;;22.07;11.60;;;;;;;21.42;100.00;98596.88;5074480;28;20051;-95
2022/09/08 00:48:56;;;;;;;21.50;11.55;;;;;;;21.29;100.00;98572.56;5074554;28;20044;-95
2022/09/08 00:51:24;;;;;;;27.67;12.25;;;;;;;21.40;100.00;98596.97;5074586;28;20047;-96
2022/09/08 00:53:51;;;;;;;24.80;11.53;;;;;;;21.40;100.00;98596.09;5074385;28;20098;-95
2022/09/08 00:56:17;;;;;;;22.95;12.10;;;;;;;21.26;100.00;98576.34;5074434;28;20060;-94
2022/09/08 00:58:44;;;;;;;27.75;13.25;;;;;;;21.34;100.00;98587.47;5074416;28;20098;-94
2022/09/08 01:01:10;;;;;;;25.33;12.65;;;;;;;21.39;100.00;98580.88;5074220;28;20044;-95
2022/09/08 01:03:41;;;;;;;33.60;12.68;;;;;;;21.41;100.00;98576.22;5074651;28;20139;-95
2022/09/08 01:06:21;;;;;;;28.35;12.55;;;;;;;21.42;100.00;98576.09;5074516;28;20136;-96
2022/09/08 01:14:58;;;;;;;25.38;13.45;;;;;;;21.53;100.00;98573.47;5112885;27;20381;-95
2022/09/08 01:17:26;;;;;;;25.38;13.07;;;;;;;21.56;100.00;98587.72;5112579;28;20044;-93
2022/09/08 01:19:52;;;;;;;26.02;12.32;;;;;;;21.46;100.00;98569.50;5112476;28;20519;-94
2022/09/08 01:22:28;;;;;;;34.08;14.40;;;;;;;21.61;100.00;98591.81;5112510;28;20075;-94
2022/09/08 01:25:05;;;;;;;29.98;12.73;;;;;;;21.54;100.00;98587.88;5112305;28;20040;-95
2022/09/08 01:27:35;;;;;;;31.65;13.00;;;;;;;21.58;100.00;98591.19;5112287;28;20036;-95
2022/09/08 01:30:04;;;;;;;27.40;12.57;;;;;;;21.38;100.00;98571.88;5112631;28;20043;-94
2022/09/08 01:32:34;;;;;;;22.83;12.43;;;;;;;21.31;100.00;98568.75;5112093;28;20130;-94
2022/09/08 01:35:01;;;;;;;26.48;12.98;;;;;;;21.22;100.00;98561.34;5112445;28;20035;-94
2022/09/08 01:37:26;;;;;;;26.45;12.38;;;;;;;21.23;100.00;98579.31;5112315;28;20389;-94
2022/09/08 01:39:52;;;;;;;30.20;14.52;;;;;;;21.18;100.00;98576.06;5111894;28;20036;-93
2022/09/08 01:42:18;;;;;;;29.40;14.43;;;;;;;21.15;100.00;98570.88;5112102;28;20051;-94
2022/09/08 01:44:46;;;;;;;32.38;12.77;;;;;;;21.19;100.00;98563.38;5112046;28;20046;-93
2022/09/08 01:47:11;;;;;;;25.52;12.15;;;;;;;21.36;100.00;98597.31;5111931;28;20055;-95
2022/09/08 01:49:38;;;;;;;26.15;13.77;;;;;;;21.36;100.00;98587.38;5111853;28;20040;-93
2022/09/08 01:52:04;;;;;;;30.55;13.07;;;;;;;21.40;100.00;98591.56;5111903;28;20048;-95
2022/09/08 01:54:30;;;;;;;32.28;12.32;;;;;;;21.50;100.00;98605.31;5111806;28;20465;-94
2022/09/08 01:56:56;;;;;;;27.27;12.55;;;;;;;21.46;100.00;98585.72;5111675;28;20067;-93
2022/09/08 01:59:22;;;;;;;23.50;12.73;;;;;;;21.51;100.00;98583.56;5111712;28;20050;-93
2022/09/08 02:01:50;;;;;;;19.80;11.50;;;;;;;21.76;100.00;98613.31;5111559;28;20453;-94
2022/09/08 02:04:16;;;;;;;27.80;11.88;;;;;;;21.65;100.00;98581.66;5111585;28;20044;-94
2022/09/08 02:06:42;;;;;;;25.02;11.52;;;;;;;21.75;100.00;98590.78;5111458;28;20143;-94
2022/09/08 02:09:08;;;;;;;21.85;11.43;;;;;;;21.76;100.00;98576.28;5111426;28;20044;-93
2022/09/08 02:11:34;;;;;;;20.23;10.90;;;;;;;21.93;100.00;98594.81;5111424;28;20051;-94
2022/09/08 02:14:00;;;;;;;24.27;11.85;;;;;;;21.88;100.00;98579.88;5111460;28;20142;-94
2022/09/08 02:16:26;;;;;;;26.08;12.32;;;;;;;21.74;100.00;98562.84;5111370;28;20051;-94
2022/09/08 02:18:54;;;;;;;23.42;11.65;;;;;;;21.85;100.00;98583.69;5111187;28;20405;-94
2022/09/08 02:21:20;;;;;;;26.73;11.15;;;;;;;21.68;100.00;98557.03;5111721;28;20071;-93
2022/09/08 02:23:48;;;;;;;19.25;11.32;;;;;;;21.77;100.00;98574.44;5111224;28;20047;-94
2022/09/08 02:26:16;;;;;;;20.77;10.77;;;;;;;21.65;100.00;98568.97;5097547;28;20497;-94
2022/09/08 02:28:42;;;;;;;27.13;12.48;;;;;;;21.65;100.00;98565.41;5097725;28;20048;-94
2022/09/08 02:31:09;;;;;;;21.77;11.77;;;;;;;21.65;100.00;98565.41;5097585;28;20422;-94
2022/09/08 02:33:35;;;;;;;22.95;11.10;;;;;;;21.64;100.00;98561.84;5097572;28;20047;-94
2022/09/08 02:36:04;;;;;;;30.23;12.82;;;;;;;21.56;100.00;98547.16;5097750;28;20047;-96
2022/09/08 02:38:30;;;;;;;22.52;11.68;;;;;;;21.46;100.00;98539.72;5097412;28;20497;-93
2022/09/08 02:40:56;;;;;;;25.48;12.45;;;;;;;21.46;100.00;98533.47;5097367;28;20048;-94
2022/09/08 02:43:22;;;;;;;24.38;11.82;;;;;;;21.41;100.00;98541.94;5097490;28;20131;-93
2022/09/08 02:45:48;;;;;;;22.65;12.48;;;;;;;21.29;100.00;98526.56;5097331;28;20072;-95
2022/09/08 02:48:15;;;;;;;25.42;12.38;;;;;;;21.30;100.00;98525.63;5097215;28;20056;-95
2022/09/08 02:50:42;;;;;;;21.13;11.65;;;;;;;21.07;100.00;98521.91;5097109;28;20048;-94
2022/09/08 02:53:09;;;;;;;26.92;13.93;;;;;;;20.91;100.00;98516.78;5096982;28;20036;-94
2022/09/08 02:55:39;;;;;;;22.60;13.55;;;;;;;20.95;100.00;98533.63;5097126;28;20036;-94
2022/09/08 02:58:06;;;;;;;21.58;12.20;;;;;;;20.96;100.00;98547.03;5097319;28;20085;-93
2022/09/08 03:00:33;;;;;;;25.20;11.95;;;;;;;20.84;100.00;98529.00;5097205;28;20134;-94
2022/09/08 03:03:02;;;;;;;25.88;12.93;;;;;;;20.81;100.00;98526.53;5096954;28;20444;-93
2022/09/08 03:05:28;;;;;;;24.50;12.50;;;;;;;20.84;100.00;98520.88;5097358;28;20052;-94
2022/09/08 03:07:54;;;;;;;24.77;12.80;;;;;;;20.88;100.00;98530.50;5097110;28;20040;-94
2022/09/08 03:10:23;;;;;;;25.40;11.80;;;;;;;21.05;100.00;98545.50;5096894;28;20127;-94
2022/09/08 03:12:51;;;;;;;24.33;12.23;;;;;;;21.01;100.00;98546.69;5096455;28;20571;-95
2022/09/08 03:15:17;;;;;;;23.93;12.00;;;;;;;20.98;100.00;98534.28;5096695;28;20040;-94
2022/09/08 03:17:44;;;;;;;26.42;11.55;;;;;;;21.05;100.00;98527.44;5096452;28;20281;-94
2022/09/08 03:20:10;;;;;;;26.30;11.90;;;;;;;21.15;100.00;98549.25;5096541;28;20091;-94
2022/09/08 03:22:36;;;;;;;22.27;13.10;;;;;;;21.12;100.00;98534.13;5096558;28;20044;-94
2022/09/08 03:25:03;;;;;;;23.40;11.73;;;;;;;21.10;100.00;98525.25;5096521;28;20047;-95
2022/09/08 03:27:30;;;;;;;26.48;12.02;;;;;;;21.19;100.00;98509.31;5096451;28;20040;-94
2022/09/08 03:29:56;;;;;;;21.75;11.30;;;;;;;21.11;100.00;98491.81;5096542;28;20044;-94
2022/09/08 03:32:22;;;;;;;22.33;11.32;;;;;;;21.05;100.00;98510.34;5096334;28;20120;-95
2022/09/08 03:34:48;;;;;;;23.02;13.07;;;;;;;21.04;100.00;98522.16;5096446;28;20490;-94
2022/09/08 03:37:14;;;;;;;25.20;12.70;;;;;;;21.09;100.00;98534.34;5095639;28;20037;-93
2022/09/08 03:39:40;;;;;;;25.63;12.70;;;;;;;20.97;100.00;98518.16;5096215;28;20045;-94
2022/09/08 03:42:06;;;;;;;25.63;11.65;;;;;;;21.01;100.00;98528.63;5096236;28;20046;-93
2022/09/08 03:44:34;;;;;;;20.83;11.32;;;;;;;21.06;100.00;98531.88;5096705;28;20051;-93
2022/09/08 03:47:00;;;;;;;26.85;13.02;;;;;;;20.93;100.00;98499.47;5095995;28;20047;-94
2022/09/08 03:49:26;;;;;;;20.83;11.73;;;;;;;21.02;100.00;98500.63;5095876;28;20040;-94
2022/09/08 03:51:52;;;;;;;25.55;12.15;;;;;;;21.17;100.00;98509.44;5096105;28;20040;-93
2022/09/08 03:57:21;;;;;;;31.40;12.82;;;;;;;21.19;100.00;98501.19;5108762;27;20375;-93
2022/09/08 03:59:48;;;;;;;21.35;11.70;;;;;;;21.14;100.00;98485.31;5092248;28;20052;-93
2022/09/08 04:02:14;;;;;;;28.38;13.60;;;;;;;21.30;100.00;98499.44;5092587;28;20496;-94
2022/09/08 04:04:40;;;;;;;28.52;13.65;;;;;;;21.14;100.00;98477.22;5092281;28;20047;-93
2022/09/08 04:07:07;;;;;;;30.92;13.43;;;;;;;21.22;100.00;98477.50;5093051;28;20507;-93
2022/09/08 04:09:33;;;;;;;37.00;14.55;;;;;;;21.23;100.00;98495.47;5092144;28;20048;-94
2022/09/08 04:11:59;;;;;;;30.00;15.10;;;;;;;21.01;100.00;98477.25;5094260;28;20363;-94
2022/09/08 04:14:26;;;;;;;28.05;13.65;;;;;;;20.89;100.00;98470.94;5091874;28;20056;-93
2022/09/08 04:16:52;;;;;;;30.42;13.73;;;;;;;20.92;100.00;98478.81;5092930;28;20135;-94
2022/09/08 04:19:18;;;;;;;28.63;13.30;;;;;;;20.87;100.00;98463.94;5092109;28;20060;-93
2022/09/08 04:21:44;;;;;;;27.45;12.93;;;;;;;20.93;100.00;98477.84;5091681;28;20047;-94
2022/09/08 04:24:10;;;;;;;26.98;13.45;;;;;;;20.89;100.00;98475.50;5091678;28;20137;-95
2022/09/08 04:26:37;;;;;;;23.65;12.88;;;;;;;20.88;100.00;98474.63;5091712;28;20040;-92
2022/09/08 04:29:03;;;;;;;30.55;12.30;;;;;;;20.89;100.00;98492.56;5092063;28;20051;-92
2022/09/08 04:31:31;;;;;;;23.58;13.48;;;;;;;20.89;100.00;98506.06;5091622;28;20132;-95
2022/09/08 04:33:56;;;;;;;26.92;11.93;;;;;;;20.75;100.00;98500.81;5099738;28;20063;-96
2022/09/08 04:36:22;;;;;;;23.92;12.10;;;;;;;20.95;100.00;98517.41;5108279;28;20063;-94
2022/09/08 04:38:48;;;;;;;23.20;9.75;;;;;;;20.94;100.00;98519.25;5098099;28;20035;-96
2022/09/08 04:41:16;;;;;;;25.73;10.32;;;;;;;20.93;100.00;98521.09;5112875;28;20131;-96
2022/09/08 04:43:43;;;;;;;21.40;10.37;;;;;;;21.00;100.00;98545.84;5111558;28;20052;-95
2022/09/08 04:46:11;;;;;;;24.63;10.02;;;;;;;20.92;100.00;98540.13;5111491;28;20036;-96
2022/09/08 04:48:40;;;;;;;16.50;9.63;;;;;;;20.90;100.00;98548.34;5111580;28;20146;-94
2022/09/08 04:51:08;;;;;;;19.58;9.43;;;;;;;21.06;98.58;98564.31;5085791;28;20052;-93
2022/09/08 04:53:36;;;;;;;17.03;9.60;;;;;;;21.07;98.54;98559.75;5090926;28;20098;-95
2022/09/08 04:56:02;;;;;;;19.08;10.07;;;;;;;21.21;100.00;98564.13;5090632;28;20040;-95
2022/09/08 04:58:29;;;;;;;24.23;10.52;;;;;;;21.18;100.00;98556.28;5090923;28;20036;-94
2022/09/08 05:01:02;;;;;;;23.23;9.80;;;;;;;21.27;100.00;98561.84;5090714;28;20040;-96
2022/09/08 05:03:27;;;;;;;19.80;9.88;;;;;;;21.27;100.00;98561.84;5090683;28;20044;-91
2022/09/08 05:05:55;;;;;;;19.92;10.00;;;;;;;21.27;100.00;98551.03;5090479;28;20497;-94
2022/09/08 05:08:21;;;;;;;24.65;9.90;;;;;;;21.25;100.00;98544.91;5081710;28;20066;-95
2022/09/08 05:10:47;;;;;;;21.25;9.50;;;;;;;21.25;100.00;98535.91;5097635;28;20489;-95
2022/09/08 05:13:13;;;;;;;23.45;10.27;;;;;;;21.43;100.00;98549.94;5097464;28;20056;-95
2022/09/08 05:15:39;;;;;;;17.40;9.52;;;;;;;21.37;100.00;98535.00;5091673;28;20088;-96
2022/09/08 05:18:05;;;;;;;20.52;9.13;;;;;;;21.43;100.00;98541.81;5077084;28;20055;-96
2022/09/08 05:20:31;;;;;;;24.52;9.48;;;;;;;21.47;100.00;98538.78;5077222;28;20071;-95
2022/09/08 05:22:58;;;;;;;21.95;9.05;;;;;;;21.46;100.00;98512.69;5076778;28;20040;-95
2022/09/08 05:25:24;;;;;;;20.73;9.40;;;;;;;21.46;98.67;98504.56;5076651;28;20045;-96
2022/09/08 05:27:50;;;;;;;19.73;9.60;;;;;;;21.45;99.39;98513.66;5076690;28;20049;-96
2022/09/08 05:30:16;;;;;;;19.38;9.45;;;;;;;21.42;99.53;98500.34;5076567;28;20543;-95
2022/09/08 05:32:42;;;;;;;17.35;8.48;;;;;;;21.45;99.75;98515.53;5076633;28;20045;-95
2022/09/08 05:35:08;;;;;;;20.23;9.05;;;;;;;21.41;100.00;98489.66;5076849;28;20041;-95
2022/09/08 05:37:34;;;;;;;22.23;9.18;;;;;;;21.35;100.00;98474.72;5076590;28;20048;-94
2022/09/08 05:40:02;;;;;;;20.98;8.95;;;;;;;21.31;100.00;98465.97;5076504;28;20079;-95
2022/09/08 05:42:27;;;;;;;17.13;9.25;;;;;;;21.24;100.00;98455.75;5076451;28;20478;-94
2022/09/08 05:44:53;;;;;;;19.77;9.02;;;;;;;21.26;99.63;98451.09;5095942;28;20123;-94
2022/09/08 05:47:19;;;;;;;20.48;9.65;;;;;;;21.20;99.55;98457.81;5089475;28;20044;-94
2022/09/08 05:49:46;;;;;;;17.77;8.45;;;;;;;21.16;99.33;98450.91;5080017;28;20138;-95
2022/09/08 05:52:12;;;;;;;25.35;9.52;;;;;;;21.15;99.63;98449.22;5076606;28;20048;-95
2022/09/08 05:54:38;;;;;;;16.60;9.00;;;;;;;21.10;99.66;98454.06;5083942;28;20085;-95
2022/09/08 05:57:05;;;;;;;25.17;10.60;;;;;;;21.04;99.65;98450.00;5084832;28;20086;-95
2022/09/08 05:59:31;;;;;;;19.48;9.80;;;;;;;21.12;99.07;98458.41;5076029;28;20139;-95
2022/09/08 06:01:57;;;;;;;23.70;9.57;;;;;;;21.12;98.11;98460.22;5083538;28;20060;-93
2022/09/08 06:04:23;;;;;;;18.95;9.32;;;;;;;21.09;97.47;98438.84;5076068;28;20040;-95
2022/09/08 06:06:49;;;;;;;17.95;9.05;;;;;;;21.23;97.38;98465.72;5076169;28;20486;-94
2022/09/08 06:09:17;;;;;;;18.50;9.65;;;;;;;21.11;97.73;98448.56;5075817;28;20043;-94
2022/09/08 06:11:43;;;;;;;16.98;9.07;;;;;;;21.19;98.29;98476.84;5080851;28;20040;-95
2022/09/08 06:14:11;;;;;;;22.10;9.80;;;;;;;21.10;98.61;98436.03;5081341;28;20043;-93
2022/09/08 06:16:37;;;;;;;18.90;9.80;;;;;;;21.27;98.81;98442.00;5079897;28;20401;-95
2022/09/08 06:19:03;;;;;;;18.90;10.65;;;;;;;21.18;99.45;98412.97;5090510;28;20044;-95
2022/09/08 06:21:31;;;;;;;27.58;11.43;;;;;;;21.09;100.00;98401.84;5085855;28;20040;-96
2022/09/08 06:23:59;;;;;;;21.93;11.03;;;;;;;20.97;100.00;98383.00;5075427;28;20098;-94
2022/09/08 06:26:52;;;;;;;22.95;11.40;;;;;;;21.07;100.00;98398.41;5073084;28;20062;-95
2022/09/08 06:29:32;;;;;;;24.20;10.95;;;;;;;21.01;100.00;98412.38;5079972;28;20121;-94
2022/09/08 06:32:01;;;;;;;22.08;11.10;;;;;;;20.98;100.00;98415.34;5075578;28;20045;-96
2022/09/08 06:34:34;;;;;;;21.25;10.50;;;;;;;21.00;100.00;98440.41;5075695;28;20048;-95
2022/09/08 06:37:03;;;;;;;18.85;11.23;;;;;;;21.06;100.00;98447.22;5075359;28;20498;-95
2022/09/08 06:39:36;;;;;;;24.75;10.23;;;;;;;21.01;100.00;98417.78;5075316;28;20094;-94
2022/09/08 06:42:09;;;;;;;26.20;9.60;;;;;;;21.08;100.00;98432.59;5075451;28;20040;-96
2022/09/08 06:44:39;;;;;;;25.05;10.65;;;;;;;21.04;100.00;98430.22;5075109;28;20051;-94
2022/09/08 06:47:13;;;;;;;15.85;9.57;;;;;;;21.07;100.00;98440.81;5091814;28;20478;-95
2022/09/08 06:49:39;;;;;;;23.52;10.38;;;;;;;21.10;100.00;98467.59;5095563;28;20040;-95
2022/09/08 06:52:15;;;;;;;19.00;9.55;;;;;;;21.10;100.00;98483.81;5095395;28;20085;-96
2022/09/08 06:54:49;;;;;;;21.63;9.70;;;;;;;21.05;100.00;98513.06;5081551;28;20037;-94
2022/09/08 06:57:27;;;;;;;19.45;9.48;;;;;;;21.10;100.00;98532.47;5075155;28;20041;-95
2022/09/08 07:00:07;;;;;;;20.13;10.02;;;;;;;21.13;100.00;98530.44;5074995;28;20136;-94
2022/09/08 07:02:49;;;;;;;21.63;10.30;;;;;;;21.19;100.00;98528.22;5074899;28;20139;-95
2022/09/08 07:05:49;;;;;;;18.42;9.50;;;;;;;21.17;100.00;98538.34;5069059;28;20481;-96
2022/09/08 07:08:38;;;;;;;19.58;10.65;;;;;;;21.04;100.00;98538.38;5077386;28;20102;-96
2022/09/08 07:11:15;;;;;;;19.35;8.95;;;;;;;21.12;100.00;98549.47;5080107;28;20405;-95
2022/09/08 07:13:47;;;;;;;19.25;9.95;;;;;;;21.18;100.00;98556.28;5074870;28;20501;-96
2022/09/08 07:16:22;;;;;;;19.88;10.20;;;;;;;21.13;100.00;98549.34;5074501;28;20056;-95
2022/09/08 07:18:54;;;;;;;21.33;9.65;;;;;;;21.11;100.00;98520.72;5077341;28;20032;-94
2022/09/08 07:21:29;;;;;;;20.83;10.73;;;;;;;21.11;100.00;98508.06;5074374;28;20040;-95
2022/09/08 07:23:57;;;;;;;17.92;10.27;;;;;;;21.15;100.00;98538.44;5075558;28;20048;-95
2022/09/08 07:26:29;;;;;;;21.77;10.13;;;;;;;21.04;100.00;98541.06;5095017;28;20375;-95
2022/09/08 07:29:03;;;;;;;27.23;11.23;;;;;;;21.05;100.00;98588.75;5086119;28;20036;-94
2022/09/08 07:31:30;;;;;;;32.47;12.75;;;;;;;21.06;100.00;98666.19;5080430;28;20052;-94
2022/09/08 07:34:02;;;;;;;32.58;13.60;;;;;;;20.86;100.00;98581.09;5081450;28;20040;-94
2022/09/08 07:36:36;;;;;;;31.15;12.48;;;;;;;20.65;100.00;98554.66;5075949;28;20127;-95
2022/09/08 07:39:09;;;;;;;27.38;13.43;;;;;;;20.31;100.00;98532.72;5075261;28;20064;-94
2022/09/08 07:41:40;;;;;;;30.08;12.95;;;;;;;20.23;100.00;98605.31;5074537;28;20448;-94
2022/09/08 07:44:13;;;;;;;26.00;12.57;;;;;;;20.27;100.00;98609.50;5087978;28;20046;-96
2022/09/08 07:47:14;;;;;;;25.33;13.68;;;;;;;20.33;100.00;98629.84;5091606;28;20040;-94
2022/09/08 07:49:52;;;;;;;29.45;13.68;;;;;;;20.26;100.00;98623.16;5067621;28;20048;-95
2022/09/08 07:52:30;;;;;;;30.35;14.15;;;;;;;20.28;100.00;98610.41;5078255;28;20139;-94
2022/09/08 07:55:12;;;;;;;32.83;14.98;;;;;;;20.39;100.00;98633.97;5077232;28;20049;-96
2022/09/08 07:57:48;;;;;;;33.75;16.13;;;;;;;20.38;100.00;98597.97;5076941;28;20052;-96
2022/09/08 08:00:17;;;;;;;39.85;16.85;;;;;;;20.41;100.00;98681.50;5077688;28;20090;-96
2022/09/08 08:03:17;;;;;;;32.47;16.35;;;;;;;20.54;100.00;98695.03;5088426;28;20075;-94
2022/09/08 08:05:48;;;;;;;37.15;17.73;;;;;;;20.48;100.00;98719.75;5080461;28;20040;-95
2022/09/08 08:08:25;;;;;;;38.25;15.80;;;;;;;20.33;100.00;98685.69;5080052;28;20037;-96
2022/09/08 08:11:03;;;;;;;30.02;14.27;;;;;;;20.30;100.00;98676.81;5090312;28;20049;-96
2022/09/08 08:13:50;;;;;;;27.67;14.50;;;;;;;20.32;100.00;98663.22;5090975;28;20049;-96
2022/09/08 08:16:26;;;;;;;30.20;14.45;;;;;;;20.33;100.00;98662.25;5089515;28;20052;-96
2022/09/08 08:19:02;;;;;;;28.92;15.35;;;;;;;20.28;100.00;98623.91;5084730;28;20543;-96
2022/09/08 08:21:34;;;;;;;32.47;17.02;;;;;;;20.15;100.00;98623.88;5086994;28;20509;-96
2022/09/08 08:24:18;;;;;;;41.00;17.65;;;;;;;20.11;100.00;98614.25;5088147;28;20037;-96
2022/09/08 08:26:51;;;;;;;31.02;16.00;;;;;;;20.17;100.00;98618.34;5086828;28;20209;-96
2022/09/08 08:29:41;;;;;;;31.90;16.05;;;;;;;20.33;100.00;98618.19;5086586;28;20071;-96
2022/09/08 08:32:11;;;;;;;29.92;15.68;;;;;;;20.24;100.00;98585.44;5086495;28;20099;-96
2022/09/08 08:34:46;;;;;;;34.85;15.27;;;;;;;20.06;100.00;98568.69;5084994;28;20037;-96
2022/09/08 08:37:20;;;;;;;27.35;13.95;;;;;;;20.10;100.00;98559.41;5085630;28;20048;-95
2022/09/08 08:39:49;;;;;;;33.22;15.77;;;;;;;20.24;100.00;98582.75;5085777;28;20045;-95
2022/09/08 08:42:24;;;;;;;;;;;;;;;20.38;100.00;98583.59;5090606;28;20040;-96
2022/09/08 08:45:04;;;;;;;23.02;12.73;;;;;;;20.36;100.00;98554.00;5092258;28;19920;-96
2022/09/08 08:47:50;;;;;;;24.40;13.05;;;;;;;20.49;100.00;98549.47;5092064;28;20037;-96
2022/09/08 08:51:00;;;;;;;26.35;11.50;;;;;;;20.56;100.00;98574.22;5089565;28;20122;-96
2022/09/08 08:53:50;;;;;;;23.45;10.95;;;;;;;20.34;100.00;98547.84;5087044;28;20045;-96
2022/09/08 08:56:23;;;;;;;22.42;10.65;;;;;;;20.42;100.00;98555.41;5087189;28;20052;-96
2022/09/08 08:59:13;;;;;;;20.73;10.45;;;;;;;20.62;100.00;98560.28;5091246;28;20482;-96
2022/09/08 09:01:58;;;;;;;15.02;8.45;;;;;;;20.90;100.00;98559.16;5093312;28;20044;-96
2022/09/08 09:04:51;;;;;;;13.23;7.13;;;;;;;21.01;100.00;98555.66;5091909;28;20138;-96
2022/09/08 09:08:02;;;;;;;15.50;7.15;;;;;;;21.01;99.40;98546.69;5092903;28;20419;-96
2022/09/08 09:11:21;;;;;;;18.63;7.00;;;;;;;21.15;100.00;98543.00;5095081;28;20083;-96
2022/09/08 09:14:10;;;;;;;13.13;6.80;;;;;;;21.33;99.02;98536.19;5093573;28;20052;-95
2022/09/08 09:17:06;;;;;;;12.02;6.60;;;;;;;21.53;96.14;98532.91;5089845;28;20055;-96
2022/09/08 09:20:03;;;;;;;16.25;7.15;;;;;;;21.84;96.27;98541.38;5087756;28;20044;-96
2022/09/08 09:22:44;;;;;;;15.77;7.00;;;;;;;22.21;96.44;98565.59;5086026;28;20506;-95
2022/09/08 09:25:17;;;;;;;14.02;6.60;;;;;;;22.35;95.44;98549.13;5084866;28;20041;-94
2022/09/08 09:27:46;;;;;;;12.63;6.20;;;;;;;22.45;90.84;98545.72;5085652;28;20040;-96
2022/09/08 09:30:21;;;;;;;13.85;6.93;;;;;;;22.81;90.51;98570.84;5085532;28;20087;-96
2022/09/08 09:33:12;;;;;;;13.60;6.50;;;;;;;22.92;90.26;98549.13;5084870;28;20119;-96
2022/09/08 09:35:56;;;;;;;14.48;6.47;;;;;;;23.03;87.96;98543.75;5082893;28;20066;-95
2022/09/08 09:38:57;;;;;;;18.88;6.50;;;;;;;23.32;88.40;98575.75;5082799;28;20048;-95
2022/09/08 09:41:58;;;;;;;16.05;6.28;;;;;;;23.29;86.85;98529.88;5048637;28;20048;-95
2022/09/08 09:44:46;;;;;;;12.40;5.45;;;;;;;23.48;86.76;98527.34;5079702;28;20052;-95
2022/09/08 09:47:27;;;;;;;8.93;5.28;;;;;;;23.74;82.59;98529.69;5083759;28;20041;-94
2022/09/08 09:50:11;;;;;;;12.38;5.70;;;;;;;24.06;82.44;98517.97;5087750;28;20082;-96
2022/09/08 09:52:46;;;;;;;17.65;5.68;;;;;;;24.33;79.58;98506.53;5090368;28;20131;-95
2022/09/08 09:55:23;;;;;;;13.05;5.38;;;;;;;24.43;76.96;98517.47;5091337;28;20051;-95
2022/09/08 09:58:34;;;;;;;14.13;5.35;;;;;;;24.45;78.34;98507.31;5092124;28;20041;-96
2022/09/08 10:01:20;;;;;;;12.15;5.28;;;;;;;24.73;78.40;98503.88;5090752;28;20048;-94
2022/09/08 10:04:18;;;;;;;12.07;4.72;;;;;;;24.87;75.39;98518.09;5091242;28;20048;-95
2022/09/08 10:07:23;;;;;;;10.90;5.40;;;;;;;24.94;74.86;98509.25;5088920;28;20048;-96
2022/09/08 10:10:35;;;;;;;16.70;5.60;;;;;;;25.11;73.94;98509.56;5082631;28;20060;-96
2022/09/08 10:13:39;;;;;;;14.18;5.60;;;;;;;24.98;77.23;98512.53;5090375;28;20044;-95
2022/09/08 10:16:38;;;;;;;12.52;5.50;;;;;;;24.47;75.46;98498.03;5084913;28;20033;-95
2022/09/08 10:19:35;;;;;;;14.60;5.80;;;;;;;24.63;76.48;98489.38;5088273;28;20056;-94
2022/09/08 10:22:41;;;;;;;13.75;5.47;;;;;;;24.70;76.12;98473.38;5065483;28;20394;-95
2022/09/08 10:25:26;;;;;;;10.18;6.22;;;;;;;24.83;74.83;98475.84;5089363;28;20107;-95
2022/09/08 10:28:10;;;;;;;12.90;5.90;;;;;;;24.89;75.26;98472.59;5085411;28;20126;-95
2022/09/08 10:31:13;;;;;;;14.65;6.35;;;;;;;25.11;75.65;98474.19;5083313;28;20100;-94
2022/09/08 10:33:57;;;;;;;15.50;6.43;;;;;;;25.16;76.64;98466.50;5077829;28;20037;-94
2022/09/08 10:36:41;;;;;;;16.02;6.20;;;;;;;25.34;74.59;98461.22;5081819;28;20043;-96
2022/09/08 10:39:20;;;;;;;13.65;6.68;;;;;;;25.04;73.54;98462.16;5086032;28;20090;-93
2022/09/08 10:42:21;;;;;;;12.65;6.00;;;;;;;25.04;75.15;98464.88;5075190;28;20045;-93
2022/09/08 10:44:57;;;;;;;13.63;5.88;;;;;;;25.33;73.59;98454.94;5087182;28;20036;-94
2022/09/08 10:48:11;;;;;;;17.13;7.50;;;;;;;25.34;74.85;98448.47;5079221;28;20040;-94
2022/09/08 10:50:44;;;;;;;19.25;6.68;;;;;;;25.31;76.45;98448.78;5090428;28;20105;-94
2022/09/08 10:53:36;;;;;;;11.52;6.18;;;;;;;25.20;74.85;98438.88;5083785;28;20126;-96
2022/09/08 10:56:07;;;;;;;14.23;6.18;;;;;;;25.27;74.79;98432.88;5099947;28;20044;-96
2022/09/08 10:59:04;;;;;;;13.43;5.90;;;;;;;25.56;75.95;98454.63;5084390;28;20049;-95
2022/09/08 11:02:01;;;;;;;13.38;5.88;;;;;;;25.55;75.24;98434.72;5078746;28;20045;-95
2022/09/08 11:04:57;;;;;;;13.10;5.72;;;;;;;25.84;72.83;98444.72;5078636;28;20185;-95
2022/09/08 11:07:44;;;;;;;15.88;5.78;;;;;;;25.74;66.36;98441.13;5078790;28;20124;-95
2022/09/08 11:10:22;;;;;;;17.88;5.93;;;;;;;25.88;67.10;98427.09;5073230;28;20182;-94
2022/09/08 11:12:54;;;;;;;;;;;;;;;26.11;67.52;98456.72;5077011;28;20040;-94
2022/09/08 11:15:52;;;;;;;11.43;5.57;;;;;;;26.32;66.91;98460.09;5073311;28;19959;-90
2022/09/08 11:18:43;;;;;;;17.60;5.90;;;;;;;26.29;68.34;98456.81;5076229;28;20269;-93
2022/09/08 11:21:15;;;;;;;13.57;5.50;;;;;;;25.99;68.03;98447.88;5080009;28;20632;-95
2022/09/08 11:23:52;;;;;;;15.75;5.80;;;;;;;25.81;68.27;98442.28;5075776;28;20071;-95
2022/09/08 11:26:43;;;;;;;12.85;5.18;;;;;;;25.70;66.00;98429.69;5061151;28;20041;-93
2022/09/08 11:29:12;;;;;;;9.73;3.88;;;;;;;26.06;62.76;98418.16;5076409;28;20044;-95
2022/09/08 11:31:49;;;;;;;12.98;4.57;;;;;;;26.56;62.29;98426.00;5075879;28;20044;-94
2022/09/08 11:34:48;;;;;;;11.27;4.32;;;;;;;26.76;60.69;98435.81;5082490;28;20039;-95
2022/09/08 11:37:57;;;;;;;9.13;4.20;;;;;;;26.94;57.71;98426.81;5084398;28;20075;-93
2022/09/08 11:40:40;;;;;;;11.75;3.63;;;;;;;27.07;59.20;98419.09;5068267;28;20044;-94
2022/09/08 11:43:27;;;;;;;14.38;4.57;;;;;;;26.64;58.62;98413.34;5076220;28;20121;-94
2022/09/08 11:46:05;;;;;;;11.38;4.03;;;;;;;26.93;59.11;98425.06;5074080;28;20445;-95
2022/09/08 11:48:54;;;;;;;11.50;4.65;;;;;;;26.83;59.13;98427.88;5085146;28;20485;-92
2022/09/08 11:51:42;;;;;;;11.82;4.13;;;;;;;26.56;60.13;98421.41;5074588;28;20063;-93
2022/09/08 11:54:24;;;;;;;15.23;4.68;;;;;;;26.38;60.90;98406.84;5080424;28;20389;-94
2022/09/08 11:57:25;;;;;;;15.77;4.82;;;;;;;26.48;62.80;98402.22;5075539;28;20105;-94